createdAt,value
2018-06-29T00:00:18.769Z,22.00
2018-06-29T00:02:46.576Z,21.80
2018-06-29T00:05:14.432Z,22.00
2018-06-29T00:07:42.396Z,22.00
2018-06-29T00:10:16.331Z,21.90
2018-06-29T00:12:44.182Z,22.10
2018-06-29T00:15:12.081Z,22.10
2018-06-29T00:17:39.931Z,22.10
2018-06-29T00:20:07.768Z,22.10
2018-06-29T00:22:35.564Z,22.20
2018-06-29T00:25:03.488Z,22.20
2018-06-29T00:27:31.280Z,22.20
2018-06-29T00:29:59.076Z,22.40
2018-06-29T00:32:26.880Z,22.20
2018-06-29T00:34:55.045Z,21.90
2018-06-29T00:37:22.826Z,22.10
2018-06-29T00:39:50.651Z,22.30
2018-06-29T00:42:18.468Z,22.10
2018-06-29T00:44:46.424Z,22.10
2018-06-29T00:47:14.303Z,22.20
2018-06-29T00:49:42.168Z,22.10
2018-06-29T00:52:10.025Z,22.30
2018-06-29T00:54:37.825Z,21.80
2018-06-29T00:57:05.814Z,22.10
2018-06-29T00:59:33.658Z,22.00
2018-06-29T01:02:01.440Z,21.90
2018-06-29T01:04:29.210Z,22.20
2018-06-29T01:06:57.089Z,21.90
2018-06-29T01:09:24.996Z,21.90
2018-06-29T01:11:52.852Z,21.90
2018-06-29T01:14:20.677Z,21.90
2018-06-29T01:16:48.569Z,22.00
2018-06-29T01:19:16.357Z,22.00
2018-06-29T01:21:44.121Z,21.90
2018-06-29T01:24:11.944Z,21.80
2018-06-29T01:26:39.719Z,21.80
2018-06-29T01:29:07.745Z,21.80
2018-06-29T01:31:35.568Z,22.00
2018-06-29T01:34:03.476Z,21.70
2018-06-29T01:36:31.335Z,22.00
2018-06-29T01:38:59.116Z,21.80
2018-06-29T01:41:26.964Z,21.60
2018-06-29T01:43:54.740Z,21.80
2018-06-29T01:46:22.613Z,21.90
2018-06-29T01:48:50.365Z,21.80
2018-06-29T01:51:18.175Z,21.80
2018-06-29T01:53:45.981Z,21.80
2018-06-29T01:56:13.768Z,21.80
2018-06-29T01:58:41.642Z,21.60
2018-06-29T02:01:09.416Z,21.60
2018-06-29T02:03:37.317Z,21.50
2018-06-29T02:06:05.216Z,21.70
2018-06-29T02:08:33.088Z,21.70
2018-06-29T02:11:01.172Z,21.70
2018-06-29T02:15:56.712Z,21.70
2018-06-29T02:18:24.657Z,21.70
2018-06-29T02:20:52.509Z,21.60
2018-06-29T02:23:20.368Z,21.70
2018-06-29T02:25:48.181Z,21.70
2018-06-29T02:28:16.162Z,21.70
2018-06-29T02:30:44.085Z,22.00
2018-06-29T02:33:11.845Z,21.70
2018-06-29T02:35:39.635Z,21.50
2018-06-29T02:38:07.464Z,21.80
2018-06-29T02:40:35.301Z,21.80
2018-06-29T02:43:03.232Z,21.60
2018-06-29T02:45:31.061Z,21.80
2018-06-29T02:47:59.652Z,21.80
2018-06-29T02:50:27.447Z,21.70
2018-06-29T02:52:55.792Z,21.70
2018-06-29T02:55:23.641Z,21.70
2018-06-29T02:57:51.411Z,21.80
2018-06-29T03:00:19.225Z,21.70
2018-06-29T03:02:47.089Z,21.80
2018-06-29T03:05:14.897Z,21.80
2018-06-29T03:07:42.697Z,21.80
2018-06-29T03:10:10.471Z,21.60
2018-06-29T03:12:38.324Z,21.80
2018-06-29T03:15:06.169Z,21.50
2018-06-29T03:17:34.085Z,21.80
2018-06-29T03:20:01.880Z,21.80
2018-06-29T03:22:29.756Z,21.80
2018-06-29T03:24:57.616Z,21.80
2018-06-29T03:27:25.515Z,21.80
2018-06-29T03:29:53.334Z,21.90
2018-06-29T03:32:21.125Z,21.80
2018-06-29T03:34:48.941Z,22.00
2018-06-29T03:37:16.774Z,22.00
2018-06-29T03:39:44.551Z,21.80
2018-06-29T03:42:12.482Z,21.60
2018-06-29T03:44:40.336Z,21.90
2018-06-29T03:47:08.456Z,21.60
2018-06-29T03:49:36.312Z,21.70
2018-06-29T03:52:05.935Z,22.00
2018-06-29T03:54:33.824Z,21.80
2018-06-29T03:57:01.612Z,21.90
2018-06-29T03:59:29.700Z,21.90
2018-06-29T04:01:57.519Z,21.90
2018-06-29T04:04:25.609Z,22.00
2018-06-29T04:06:53.476Z,21.90
2018-06-29T04:09:21.479Z,21.90
2018-06-29T04:11:49.357Z,21.90
2018-06-29T04:14:17.225Z,21.90
2018-06-29T04:16:45.158Z,21.90
2018-06-29T04:19:12.972Z,21.90
2018-06-29T04:21:41.000Z,21.80
2018-06-29T04:24:08.869Z,21.80
2018-06-29T04:26:36.668Z,21.90
2018-06-29T04:29:04.572Z,21.90
2018-06-29T04:31:32.704Z,22.00
2018-06-29T04:34:00.610Z,21.90
2018-06-29T04:36:28.352Z,21.60
2018-06-29T04:38:56.236Z,21.90
2018-06-29T04:41:24.090Z,21.80
2018-06-29T04:43:51.928Z,21.70
2018-06-29T04:46:19.720Z,21.80
2018-06-29T04:48:47.783Z,21.80
2018-06-29T04:51:15.685Z,22.00
2018-06-29T04:53:44.359Z,21.90
2018-06-29T04:56:12.421Z,21.90
2018-06-29T04:58:41.073Z,21.90
2018-06-29T05:01:09.616Z,21.90
2018-06-29T05:03:37.743Z,21.90
2018-06-29T05:06:05.784Z,21.80
2018-06-29T05:08:33.984Z,22.00
2018-06-29T05:11:02.160Z,22.00
2018-06-29T05:13:30.899Z,22.20
2018-06-29T05:15:58.889Z,22.00
2018-06-29T05:18:26.976Z,22.10
2018-06-29T05:20:54.842Z,22.10
2018-06-29T05:23:22.650Z,22.10
2018-06-29T05:25:51.726Z,22.10
2018-06-29T05:30:47.918Z,22.10
2018-06-29T05:33:15.932Z,22.20
2018-06-29T05:35:43.749Z,22.10
2018-06-29T05:38:11.589Z,22.20
2018-06-29T05:40:39.422Z,22.20
2018-06-29T05:43:07.308Z,22.30
2018-06-29T05:45:35.216Z,22.20
2018-06-29T05:48:03.049Z,22.20
2018-06-29T05:50:30.909Z,22.20
2018-06-29T05:52:58.717Z,22.10
2018-06-29T05:55:26.620Z,22.20
2018-06-29T05:57:54.761Z,22.20
2018-06-29T06:00:23.029Z,22.20
2018-06-29T06:02:50.886Z,22.00
2018-06-29T06:05:18.692Z,22.20
2018-06-29T06:07:46.868Z,22.30
2018-06-29T06:10:14.689Z,22.40
2018-06-29T06:12:42.759Z,22.10
2018-06-29T06:15:12.551Z,22.40
2018-06-29T06:17:40.392Z,22.40
2018-06-29T06:20:11.131Z,22.40
2018-06-29T06:25:06.768Z,22.60
2018-06-29T06:27:34.679Z,22.50
2018-06-29T06:30:02.984Z,22.60
2018-06-29T06:32:30.967Z,22.50
2018-06-29T06:34:59.607Z,22.60
2018-06-29T06:37:27.644Z,22.50
2018-06-29T06:39:55.925Z,22.50
2018-06-29T06:42:24.110Z,22.50
2018-06-29T06:44:52.130Z,22.50
2018-06-29T06:47:20.344Z,22.50
2018-06-29T06:49:48.565Z,22.50
2018-06-29T06:52:16.382Z,22.60
2018-06-29T06:54:44.471Z,22.60
2018-06-29T06:57:12.585Z,22.60
2018-06-29T06:59:40.472Z,22.70
2018-06-29T07:02:08.282Z,22.80
2018-06-29T07:04:36.500Z,22.80
2018-06-29T07:07:04.740Z,22.80
2018-06-29T07:09:33.920Z,22.80
2018-06-29T07:12:02.160Z,22.70
2018-06-29T07:14:29.996Z,22.90
2018-06-29T07:16:57.877Z,22.90
2018-06-29T07:19:25.827Z,22.90
2018-06-29T07:21:53.708Z,22.80
2018-06-29T07:24:21.840Z,22.80
2018-06-29T07:26:49.905Z,23.00
2018-06-29T07:29:18.025Z,23.00
2018-06-29T07:31:45.897Z,23.10
2018-06-29T07:34:13.720Z,23.00
2018-06-29T07:36:43.822Z,23.10
2018-06-29T07:39:12.653Z,23.20
2018-06-29T07:41:40.522Z,23.20
2018-06-29T07:44:15.996Z,23.20
2018-06-29T07:46:43.809Z,23.20
2018-06-29T07:49:12.386Z,23.30
2018-06-29T07:51:40.203Z,23.30
2018-06-29T07:54:07.997Z,23.30
2018-06-29T07:56:36.057Z,23.30
2018-06-29T07:59:03.825Z,23.40
2018-06-29T08:01:31.678Z,23.50
2018-06-29T08:03:59.507Z,23.60
2018-06-29T08:06:27.356Z,23.80
2018-06-29T08:08:55.224Z,24.00
2018-06-29T08:11:23.400Z,24.30
2018-06-29T08:13:51.267Z,24.70
2018-06-29T08:16:19.107Z,25.10
2018-06-29T08:18:46.972Z,25.50
2018-06-29T08:21:15.077Z,25.80
2018-06-29T08:23:42.833Z,25.90
2018-06-29T08:26:27.930Z,25.80
2018-06-29T08:28:56.881Z,25.70
2018-06-29T08:31:26.033Z,25.70
2018-06-29T08:33:53.800Z,25.60
2018-06-29T08:36:21.588Z,25.60
2018-06-29T08:38:49.826Z,25.70
2018-06-29T08:41:17.704Z,25.80
2018-06-29T08:43:45.959Z,26.00
2018-06-29T08:51:35.423Z,26.90
2018-06-29T08:54:05.401Z,27.20
2018-06-29T08:56:33.614Z,27.30
2018-06-29T08:59:01.423Z,27.60
2018-06-29T09:01:39.669Z,27.80
2018-06-29T09:04:07.722Z,27.80
2018-06-29T09:06:35.644Z,27.90
2018-06-29T09:09:12.565Z,27.80
2018-06-29T09:11:49.630Z,27.90
2018-06-29T10:09:40.554Z,32.10
2018-06-29T10:12:09.040Z,31.60
2018-06-29T10:14:37.029Z,31.60
2018-06-29T10:17:05.334Z,31.40
2018-06-29T10:19:33.329Z,31.40
2018-06-29T10:22:01.563Z,31.70
2018-06-29T10:24:30.289Z,32.00
2018-06-29T10:26:58.221Z,32.00
2018-06-29T10:29:26.104Z,31.70
2018-06-29T10:31:54.752Z,31.80
2018-06-29T10:34:22.596Z,31.60
2018-06-29T10:39:18.710Z,31.50
2018-06-29T10:44:15.087Z,31.80
2018-06-29T10:46:43.323Z,31.70
2018-06-29T10:49:11.209Z,31.90
2018-06-29T10:51:39.665Z,31.80
2018-06-29T10:54:07.567Z,31.50
2018-06-29T10:56:35.431Z,31.30
2018-06-29T10:59:03.898Z,31.50
2018-06-29T11:01:31.820Z,31.90
2018-06-29T11:04:00.218Z,31.70
2018-06-29T11:06:28.033Z,31.40
2018-06-29T11:08:55.943Z,31.10
2018-06-29T11:11:23.796Z,30.90
2018-06-29T11:13:52.202Z,30.60
2018-06-29T11:16:20.082Z,30.40
2018-06-29T11:18:47.948Z,30.20
2018-06-29T11:21:15.789Z,30.10
2018-06-29T11:23:43.599Z,29.70
2018-06-29T11:26:11.429Z,29.50
2018-06-29T11:28:39.251Z,29.60
2018-06-29T11:31:07.156Z,29.90
2018-06-29T11:33:35.058Z,30.30
2018-06-29T11:36:02.952Z,30.40
2018-06-29T11:38:30.832Z,30.60
2018-06-29T11:40:58.632Z,30.50
2018-06-29T11:43:26.478Z,30.60
2018-06-29T11:45:54.288Z,30.50
2018-06-29T11:50:49.777Z,30.20
2018-06-29T11:53:17.634Z,30.20
2018-06-29T11:55:45.477Z,30.00
2018-06-29T11:58:13.339Z,30.00
2018-06-29T12:00:41.238Z,29.90
2018-06-29T12:03:09.139Z,29.90
2018-06-29T12:05:36.989Z,29.80
2018-06-29T12:08:04.854Z,29.70
2018-06-29T12:10:32.984Z,29.70
2018-06-29T12:13:00.843Z,29.60
2018-06-29T12:15:28.809Z,29.80
2018-06-29T12:17:57.511Z,30.00
2018-06-29T12:20:25.420Z,30.00
2018-06-29T12:22:53.512Z,30.10
2018-06-29T12:27:49.276Z,30.10
2018-06-29T12:30:17.065Z,30.10
2018-06-29T12:32:44.873Z,30.10
2018-06-29T12:35:12.668Z,30.40
2018-06-29T12:37:40.874Z,30.60
2018-06-29T12:40:08.825Z,30.70
2018-06-29T12:42:36.650Z,30.60
2018-06-29T12:45:04.624Z,30.70
2018-06-29T12:47:32.404Z,30.70
2018-06-29T12:50:00.192Z,30.70
2018-06-29T12:54:56.558Z,30.70
2018-06-29T12:57:24.407Z,30.70
2018-06-29T12:59:52.190Z,30.60
2018-06-29T13:02:20.079Z,30.50
2018-06-29T13:04:47.926Z,30.60
2018-06-29T13:07:15.758Z,30.70
2018-06-29T13:09:43.612Z,30.70
2018-06-29T13:12:11.536Z,30.70
2018-06-29T13:14:39.498Z,30.60
2018-06-29T13:17:07.410Z,30.70
2018-06-29T13:19:35.308Z,30.80
2018-06-29T13:22:03.141Z,30.80
2018-06-29T13:24:30.946Z,30.80
2018-06-29T13:26:58.770Z,30.90
2018-06-29T13:29:26.702Z,30.90
2018-06-29T13:31:54.620Z,30.90
2018-06-29T13:34:22.503Z,31.00
2018-06-29T13:36:50.319Z,31.00
2018-06-29T13:39:18.218Z,31.00
2018-06-29T13:41:46.075Z,31.10
2018-06-29T13:44:13.877Z,31.20
2018-06-29T13:46:41.722Z,31.30
2018-06-29T13:49:09.630Z,31.40
2018-06-29T13:51:37.384Z,31.50
2018-06-29T13:54:05.255Z,31.60
2018-06-29T13:56:33.068Z,31.70
2018-06-29T13:59:00.971Z,31.70
2018-06-29T14:01:28.808Z,31.60
2018-06-29T14:03:56.668Z,31.60
2018-06-29T14:06:24.504Z,31.60
2018-06-29T14:08:52.475Z,31.60
2018-06-29T14:11:20.370Z,31.70
2018-06-29T14:13:48.509Z,31.80
2018-06-29T14:16:16.388Z,31.90
2018-06-29T14:18:44.284Z,31.80
2018-06-29T14:21:12.324Z,31.60
2018-06-29T14:23:40.162Z,31.30
2018-06-29T14:26:08.053Z,31.20
2018-06-29T14:28:36.295Z,31.30
2018-06-29T14:31:04.165Z,31.60
2018-06-29T14:33:32.152Z,31.70
2018-06-29T14:36:00.061Z,31.90
2018-06-29T14:38:28.044Z,32.00
2018-06-29T14:40:56.053Z,32.20
2018-06-29T14:43:24.256Z,31.90
2018-06-29T14:45:52.612Z,31.60
2018-06-29T14:48:21.326Z,31.40
2018-06-29T14:50:49.329Z,31.10
2018-06-29T14:53:17.224Z,30.90
2018-06-29T14:55:45.190Z,30.80
2018-06-29T14:58:13.349Z,30.80
2018-06-29T15:00:41.416Z,30.70
2018-06-29T15:03:12.522Z,30.60
2018-06-29T15:05:42.492Z,30.60
2018-06-29T15:08:10.938Z,30.50
2018-06-29T15:10:39.063Z,30.50
2018-06-29T15:13:06.988Z,30.40
2018-06-29T15:15:42.455Z,30.40
2018-06-29T15:18:10.616Z,30.30
2018-06-29T15:20:38.668Z,30.20
2018-06-29T15:23:06.573Z,30.20
2018-06-29T15:25:34.537Z,30.10
2018-06-29T15:28:02.964Z,30.00
2018-06-29T15:30:30.920Z,30.00
2018-06-29T15:32:58.960Z,29.90
2018-06-29T15:35:27.045Z,30.00
2018-06-29T15:37:55.249Z,30.10
2018-06-29T15:40:23.175Z,30.30
2018-06-29T15:42:57.370Z,30.50
2018-06-29T15:45:27.228Z,30.60
2018-06-29T15:47:55.339Z,30.70
2018-06-29T15:50:23.229Z,30.60
2018-06-29T15:52:51.665Z,30.70
2018-06-29T15:55:20.251Z,30.80
2018-06-29T15:57:48.115Z,30.80
2018-06-29T16:00:16.440Z,31.00
2018-06-29T16:02:44.451Z,31.10
2018-06-29T16:05:12.362Z,31.20
2018-06-29T16:07:41.137Z,31.10
2018-06-29T16:12:37.045Z,31.20
2018-06-29T16:15:05.320Z,31.00
2018-06-29T16:17:33.349Z,31.00
2018-06-29T16:20:01.234Z,30.90
2018-06-29T16:22:29.180Z,30.70
2018-06-29T16:24:57.464Z,30.70
2018-06-29T16:27:25.826Z,30.70
2018-06-29T16:29:54.189Z,30.50
2018-06-29T16:32:22.253Z,30.50
2018-06-29T16:34:50.157Z,30.40
2018-06-29T16:37:18.041Z,30.40
2018-06-29T16:39:46.022Z,30.40
2018-06-29T16:42:13.923Z,30.40
2018-06-29T16:44:41.907Z,30.20
2018-06-29T16:47:09.912Z,30.20
2018-06-29T16:52:05.500Z,30.20
2018-06-29T16:54:33.566Z,30.30
2018-06-29T16:57:01.428Z,30.30
2018-06-29T16:59:29.465Z,30.20
2018-06-29T17:01:57.427Z,30.10
2018-06-29T17:04:25.325Z,30.10
2018-06-29T17:06:53.354Z,30.00
2018-06-29T17:09:21.402Z,30.00
2018-06-29T17:11:49.645Z,29.90
2018-06-29T17:14:17.608Z,29.80
2018-06-29T17:16:45.528Z,29.80
2018-06-29T17:19:13.553Z,29.80
2018-06-29T17:21:41.672Z,29.80
2018-06-29T17:24:10.501Z,29.80
2018-06-29T17:26:38.459Z,29.80
2018-06-29T17:29:06.829Z,29.80
2018-06-29T17:31:35.353Z,29.90
2018-06-29T17:34:03.333Z,29.90
2018-06-29T17:36:31.338Z,29.90
2018-06-29T17:38:59.142Z,29.90
2018-06-29T17:41:27.081Z,29.80
2018-06-29T17:43:55.092Z,29.70
2018-06-29T17:46:23.101Z,29.70
2018-06-29T17:48:51.015Z,29.60
2018-06-29T17:51:18.901Z,29.60
2018-06-29T17:53:46.962Z,29.50
2018-06-29T17:56:14.831Z,29.50
2018-06-29T17:58:42.789Z,29.40
2018-06-29T18:01:10.957Z,29.30
2018-06-29T18:03:38.964Z,29.30
2018-06-29T18:06:06.990Z,29.30
2018-06-29T18:08:34.980Z,29.20
2018-06-29T18:11:02.832Z,29.20
2018-06-29T18:13:30.733Z,29.10
2018-06-29T18:15:58.692Z,29.00
2018-06-29T18:18:26.641Z,29.00
2018-06-29T18:20:59.852Z,29.00
2018-06-29T18:23:27.987Z,29.00
2018-06-29T18:25:56.345Z,28.90
2018-06-29T18:28:24.351Z,28.90
2018-06-29T18:30:53.181Z,28.80
2018-06-29T18:33:21.396Z,28.70
2018-06-29T18:35:49.812Z,28.70
2018-06-29T18:38:17.765Z,28.60
2018-06-29T18:40:45.573Z,28.60
2018-06-29T18:43:14.394Z,28.50
2018-06-29T18:45:44.674Z,28.50
2018-06-29T18:48:12.727Z,28.40
2018-06-29T18:50:41.076Z,28.30
2018-06-29T18:53:08.993Z,28.30
2018-06-29T18:55:37.433Z,28.30
2018-06-29T18:58:09.342Z,28.20
2018-06-29T19:00:37.408Z,28.10
2018-06-29T19:03:05.440Z,28.10
2018-06-29T19:05:34.545Z,28.10
2018-06-29T19:08:02.412Z,28.00
2018-06-29T19:10:30.356Z,28.00
2018-06-29T19:12:58.371Z,27.90
2018-06-29T19:15:26.896Z,27.80
2018-06-29T19:17:54.793Z,27.80
2018-06-29T19:20:22.713Z,27.80
2018-06-29T19:22:50.521Z,27.80
2018-06-29T19:25:18.350Z,27.80
2018-06-29T19:27:46.203Z,27.70
2018-06-29T19:30:14.196Z,27.70
2018-06-29T19:32:42.101Z,27.70
2018-06-29T19:35:09.978Z,27.60
2018-06-29T19:37:37.898Z,27.60
2018-06-29T19:40:06.014Z,27.50
2018-06-29T19:42:33.945Z,27.50
2018-06-29T19:45:01.944Z,27.50
2018-06-29T19:47:29.919Z,27.40
2018-06-29T19:49:57.773Z,27.30
2018-06-29T19:52:25.641Z,27.30
2018-06-29T19:54:53.535Z,27.20
2018-06-29T19:57:21.427Z,27.20
2018-06-29T19:59:49.850Z,27.20
2018-06-29T20:02:17.754Z,27.10
2018-06-29T20:04:46.192Z,27.10
2018-06-29T20:07:14.245Z,26.90
2018-06-29T20:09:42.192Z,26.80
2018-06-29T20:12:10.145Z,26.80
2018-06-29T20:14:39.716Z,26.60
2018-06-29T20:17:07.731Z,26.60
2018-06-29T20:19:35.554Z,26.40
2018-06-29T20:22:03.592Z,26.30
2018-06-29T20:26:59.427Z,26.20
2018-06-29T20:29:27.287Z,26.20
2018-06-29T20:31:55.072Z,26.20
2018-06-29T20:34:23.073Z,26.20
2018-06-29T20:36:50.977Z,26.20
2018-06-29T20:39:18.904Z,26.20
2018-06-29T20:41:47.217Z,26.20
2018-06-29T20:44:15.536Z,26.20
2018-06-29T20:46:43.518Z,26.10
2018-06-29T20:49:11.745Z,26.10
2018-06-29T20:51:39.902Z,26.00
2018-06-29T20:54:08.008Z,26.00
2018-06-29T20:56:36.022Z,25.90
2018-06-29T20:59:05.925Z,25.90
2018-06-29T21:01:34.392Z,25.70
2018-06-29T21:04:02.244Z,25.60
2018-06-29T21:06:30.181Z,25.50
2018-06-29T21:08:58.252Z,25.50
2018-06-29T21:11:26.242Z,25.50
2018-06-29T21:13:54.341Z,25.50
2018-06-29T21:16:22.318Z,25.40
2018-06-29T21:18:50.296Z,25.40
2018-06-29T21:21:18.248Z,25.40
2018-06-29T21:23:46.107Z,25.40
2018-06-29T21:28:41.794Z,25.30
2018-06-29T21:31:09.811Z,25.20
2018-06-29T21:33:38.413Z,25.30
2018-06-29T21:36:06.457Z,25.30
2018-06-29T21:38:34.472Z,25.30
2018-06-29T21:41:03.272Z,25.40
2018-06-29T21:43:31.441Z,25.30
2018-06-29T21:45:59.431Z,25.30
2018-06-29T21:48:27.329Z,25.20
2018-06-29T21:50:55.378Z,25.20
2018-06-29T21:53:30.671Z,25.30
2018-06-29T21:55:59.289Z,25.20
2018-06-29T21:58:27.374Z,25.10
2018-06-29T22:00:58.344Z,25.10
2018-06-29T22:03:35.078Z,25.00
2018-06-29T22:06:04.477Z,25.20
2018-06-29T22:08:32.608Z,25.10
2018-06-29T22:11:00.746Z,25.10
2018-06-29T22:13:28.970Z,25.10
2018-06-29T22:16:10.283Z,25.10
2018-06-29T22:18:39.445Z,25.10
2018-06-29T22:21:07.424Z,25.00
2018-06-29T22:23:39.430Z,25.00
2018-06-29T22:26:07.607Z,25.00
2018-06-29T22:28:35.717Z,25.00
2018-06-29T22:31:04.631Z,25.00
2018-06-29T22:33:32.872Z,25.00
2018-06-29T22:36:00.860Z,25.00
2018-06-29T22:38:28.998Z,24.90
2018-06-29T22:40:57.143Z,24.90
2018-06-29T22:43:25.504Z,24.80
2018-06-29T22:45:53.381Z,24.70
2018-06-29T22:48:21.292Z,24.70
2018-06-29T22:50:49.280Z,24.70
2018-06-29T22:53:18.596Z,24.60
2018-06-29T22:55:46.661Z,24.60
2018-06-29T22:58:14.422Z,24.40
2018-06-29T23:00:42.368Z,24.40
2018-06-29T23:03:11.402Z,24.40
2018-06-29T23:05:39.384Z,24.30
2018-06-29T23:08:08.481Z,24.20
2018-06-29T23:10:36.496Z,24.20
2018-06-29T23:13:04.747Z,24.20
2018-06-29T23:15:35.432Z,24.10
2018-06-29T23:18:03.344Z,23.90
2018-06-29T23:20:31.304Z,23.90
2018-06-29T23:22:59.215Z,23.90
2018-06-29T23:25:27.073Z,23.80
2018-06-29T23:27:54.960Z,23.80
2018-06-29T23:30:22.810Z,23.80
2018-06-29T23:32:50.692Z,23.80
2018-06-29T23:35:18.572Z,23.70
2018-06-29T23:37:46.420Z,23.60
2018-06-29T23:40:15.112Z,23.60
2018-06-29T23:42:42.992Z,23.60
2018-06-29T23:45:10.824Z,23.60
2018-06-29T23:47:38.761Z,23.40
2018-06-29T23:50:06.684Z,23.40
2018-06-29T23:52:34.619Z,23.40
2018-06-29T23:55:02.469Z,23.30
2018-06-29T23:57:30.288Z,23.40
2018-06-29T23:59:58.140Z,23.30
